createdAt,value
2023-04-18T00:00:56.619Z,20.30
2023-04-18T00:03:24.249Z,25.95
2023-04-18T00:05:52.090Z,20.05
2023-04-18T00:08:19.076Z,14.77
2023-04-18T00:10:46.746Z,17.50
2023-04-18T00:13:13.841Z,18.65
2023-04-18T00:15:43.968Z,16.58
2023-04-18T00:18:11.367Z,14.68
2023-04-18T00:20:39.437Z,15.20
2023-04-18T00:23:07.887Z,17.52
2023-04-18T00:25:34.948Z,16.90
2023-04-18T00:28:02.154Z,15.48
2023-04-18T00:30:29.210Z,18.58
2023-04-18T00:32:56.408Z,18.15
2023-04-18T00:35:23.698Z,20.75
2023-04-18T00:37:51.146Z,18.45
2023-04-18T00:40:18.378Z,18.88
2023-04-18T00:42:45.434Z,18.20
2023-04-18T00:45:12.523Z,17.15
2023-04-18T00:47:39.592Z,17.27
2023-04-18T00:50:07.552Z,24.00
2023-04-18T00:52:36.089Z,22.70
2023-04-18T00:55:05.401Z,20.05
2023-04-18T00:57:32.679Z,18.95
2023-04-18T01:00:10.438Z,18.80
2023-04-18T01:02:39.676Z,18.75
2023-04-18T01:05:08.097Z,18.95
2023-04-18T01:07:37.873Z,17.98
2023-04-18T01:10:05.683Z,21.08
2023-04-18T01:12:32.870Z,19.27
2023-04-18T01:15:00.833Z,17.60
2023-04-18T01:17:28.577Z,18.67
2023-04-18T01:19:56.814Z,18.60
2023-04-18T01:22:24.114Z,17.90
2023-04-18T01:24:51.142Z,20.05
2023-04-18T01:27:18.180Z,15.40
2023-04-18T01:29:45.233Z,23.27
2023-04-18T01:32:12.264Z,19.00
2023-04-18T01:34:39.290Z,16.35
2023-04-18T01:37:06.501Z,22.65
2023-04-18T01:39:33.574Z,32.20
2023-04-18T01:42:02.206Z,23.15
2023-04-18T01:44:29.361Z,31.30
2023-04-18T01:46:56.417Z,26.45
2023-04-18T01:49:23.812Z,21.90
2023-04-18T01:51:50.887Z,23.73
2023-04-18T01:54:17.926Z,29.33
2023-04-18T01:56:44.992Z,35.80
2023-04-18T01:59:12.044Z,23.90
2023-04-18T02:01:39.014Z,25.23
2023-04-18T02:04:06.112Z,23.90
2023-04-18T02:06:34.362Z,24.27
2023-04-18T02:09:01.515Z,26.63
2023-04-18T02:11:28.658Z,27.42
2023-04-18T02:13:55.830Z,21.73
2023-04-18T02:16:22.864Z,29.67
2023-04-18T02:18:52.730Z,23.77
2023-04-18T02:21:19.780Z,21.67
2023-04-18T02:23:46.967Z,24.58
2023-04-18T02:26:13.912Z,24.02
2023-04-18T02:28:40.984Z,25.25
2023-04-18T02:31:14.467Z,26.60
2023-04-18T02:33:47.558Z,23.13
2023-04-18T02:36:14.552Z,27.85
2023-04-18T02:38:41.653Z,31.67
2023-04-18T02:41:09.043Z,35.90
2023-04-18T02:43:36.234Z,26.60
2023-04-18T02:46:03.271Z,35.10
2023-04-18T02:48:30.305Z,34.95
2023-04-18T02:51:06.078Z,34.28
2023-04-18T02:53:33.894Z,30.73
2023-04-18T02:56:01.344Z,22.25
2023-04-18T02:58:28.578Z,28.25
2023-04-18T03:00:56.706Z,23.90
2023-04-18T03:03:23.829Z,25.38
2023-04-18T03:05:50.953Z,25.17
2023-04-18T03:08:17.953Z,23.67
2023-04-18T03:10:45.087Z,23.25
2023-04-18T03:13:12.251Z,25.00
2023-04-18T03:15:39.342Z,18.45
2023-04-18T03:18:06.449Z,23.00
2023-04-18T03:20:33.518Z,23.73
2023-04-18T03:23:00.959Z,28.95
2023-04-18T03:25:27.944Z,26.00
2023-04-18T03:27:54.964Z,28.20
2023-04-18T03:30:22.038Z,21.55
2023-04-18T03:32:49.344Z,24.80
2023-04-18T03:35:16.478Z,23.38
2023-04-18T03:37:43.606Z,23.95
2023-04-18T03:40:11.352Z,23.20
2023-04-18T03:42:38.524Z,23.63
2023-04-18T03:45:06.018Z,24.77
2023-04-18T03:47:33.708Z,20.38
2023-04-18T03:50:00.765Z,26.08
2023-04-18T03:52:29.718Z,33.13
2023-04-18T03:54:56.943Z,35.17
2023-04-18T03:57:24.068Z,32.53
2023-04-18T03:59:52.072Z,25.27
2023-04-18T04:02:19.283Z,29.55
2023-04-18T04:04:47.168Z,31.85
2023-04-18T04:07:14.339Z,26.77
2023-04-18T04:09:41.371Z,25.80
2023-04-18T04:12:08.743Z,23.60
2023-04-18T04:14:35.976Z,26.48
2023-04-18T04:17:03.053Z,25.33
2023-04-18T04:19:48.720Z,31.77
2023-04-18T04:22:16.412Z,36.17
2023-04-18T04:24:43.789Z,26.38
2023-04-18T04:27:12.718Z,28.38
2023-04-18T04:29:40.088Z,27.00
2023-04-18T04:32:08.266Z,24.10
2023-04-18T04:34:36.980Z,25.02
2023-04-18T04:37:04.038Z,26.05
2023-04-18T04:39:31.019Z,33.53
2023-04-18T04:41:58.006Z,31.10
2023-04-18T04:44:26.265Z,28.85
2023-04-18T04:46:54.524Z,31.45
2023-04-18T04:49:22.097Z,34.28
2023-04-18T04:51:49.399Z,27.90
2023-04-18T04:54:16.639Z,25.67
2023-04-18T04:56:43.950Z,31.30
2023-04-18T04:59:11.255Z,26.52
2023-04-18T05:01:38.337Z,25.65
2023-04-18T05:04:05.944Z,22.40
2023-04-18T05:06:33.105Z,29.05
2023-04-18T05:09:01.220Z,27.00
2023-04-18T05:11:28.398Z,25.55
2023-04-18T05:13:55.472Z,20.95
2023-04-18T05:16:22.605Z,21.40
2023-04-18T05:18:49.603Z,26.88
2023-04-18T05:21:19.651Z,25.10
2023-04-18T05:23:46.929Z,32.30
2023-04-18T05:26:13.995Z,30.67
2023-04-18T05:28:41.549Z,32.92
2023-04-18T05:31:08.924Z,24.58
2023-04-18T05:33:36.025Z,36.60
2023-04-18T05:36:03.390Z,28.98
2023-04-18T05:38:30.640Z,34.83
2023-04-18T05:41:00.462Z,25.98
2023-04-18T05:43:27.578Z,23.10
2023-04-18T05:45:57.233Z,24.85
2023-04-18T05:48:25.368Z,20.20
2023-04-18T05:50:52.578Z,22.52
2023-04-18T05:53:19.633Z,18.15
2023-04-18T05:55:48.766Z,26.77
2023-04-18T05:58:16.219Z,22.25
2023-04-18T06:00:43.627Z,26.58
2023-04-18T06:03:11.350Z,25.40
2023-04-18T06:05:41.141Z,21.05
2023-04-18T06:08:08.206Z,25.02
2023-04-18T06:10:36.994Z,33.72
2023-04-18T06:13:06.201Z,27.08
2023-04-18T06:15:34.460Z,25.90
2023-04-18T06:18:01.572Z,22.08
2023-04-18T06:20:28.723Z,28.08
2023-04-18T06:22:55.972Z,27.73
2023-04-18T06:25:23.020Z,25.95
2023-04-18T06:27:50.059Z,30.67
2023-04-18T06:30:17.137Z,26.85
2023-04-18T06:32:45.388Z,33.22
2023-04-18T06:35:12.461Z,26.10
2023-04-18T06:37:44.061Z,25.02
2023-04-18T06:40:12.227Z,30.70
2023-04-18T06:42:39.656Z,29.30
2023-04-18T06:45:07.378Z,39.65
2023-04-18T06:47:34.545Z,25.13
2023-04-18T06:50:01.713Z,27.40
2023-04-18T06:52:29.785Z,26.45
2023-04-18T06:54:56.840Z,23.70
2023-04-18T06:57:23.932Z,23.40
2023-04-18T06:59:50.987Z,25.20
2023-04-18T07:02:18.197Z,21.65
2023-04-18T07:04:45.276Z,23.25
2023-04-18T07:07:12.333Z,22.77
2023-04-18T07:09:39.298Z,22.90
2023-04-18T07:12:06.552Z,23.13
2023-04-18T07:14:34.291Z,21.88
2023-04-18T07:17:02.150Z,15.10
2023-04-18T07:19:29.409Z,23.35
2023-04-18T07:21:56.513Z,22.20
2023-04-18T07:24:24.015Z,20.20
2023-04-18T07:26:54.896Z,18.88
2023-04-18T07:29:22.497Z,19.50
2023-04-18T07:31:49.950Z,27.75
2023-04-18T07:34:17.605Z,18.08
2023-04-18T07:36:44.730Z,24.25
2023-04-18T07:39:11.747Z,18.38
2023-04-18T07:41:38.768Z,20.75
2023-04-18T07:44:06.165Z,19.70
2023-04-18T07:46:34.079Z,21.15
2023-04-18T07:49:02.477Z,19.45
2023-04-18T07:51:32.416Z,22.77
2023-04-18T07:53:59.750Z,14.50
2023-04-18T07:56:27.931Z,20.48
2023-04-18T07:58:54.971Z,21.83
2023-04-18T08:01:24.383Z,21.58
2023-04-18T08:03:53.492Z,18.75
2023-04-18T08:06:21.634Z,20.15
2023-04-18T08:08:48.753Z,16.05
2023-04-18T08:11:15.998Z,15.70
2023-04-18T08:13:43.075Z,15.10
2023-04-18T08:16:10.180Z,17.67
2023-04-18T08:18:37.268Z,13.90
2023-04-18T08:21:04.662Z,13.13
2023-04-18T08:23:31.710Z,12.82
2023-04-18T08:25:58.755Z,17.52
2023-04-18T08:28:25.857Z,17.13
2023-04-18T08:30:55.014Z,16.65
2023-04-18T08:33:26.504Z,13.30
2023-04-18T08:35:53.661Z,15.55
2023-04-18T08:38:20.837Z,15.48
2023-04-18T08:40:48.369Z,17.48
2023-04-18T08:43:15.889Z,15.50
2023-04-18T08:45:44.472Z,14.85
2023-04-18T08:48:16.408Z,19.55
2023-04-18T08:50:44.888Z,14.52
2023-04-18T08:53:12.146Z,15.20
2023-04-18T08:55:40.609Z,27.10
2023-04-18T08:58:08.103Z,14.75
2023-04-18T09:00:35.370Z,19.35
2023-04-18T09:03:03.153Z,14.68
2023-04-18T09:05:30.432Z,17.35
2023-04-18T09:07:57.646Z,18.35
2023-04-18T09:10:29.062Z,16.08
2023-04-18T09:12:57.794Z,13.32
2023-04-18T09:15:29.463Z,15.38
2023-04-18T09:17:58.923Z,19.92
2023-04-18T09:20:47.778Z,17.02
2023-04-18T09:23:24.750Z,17.00
2023-04-18T09:25:52.503Z,19.73
2023-04-18T09:28:29.970Z,18.10
2023-04-18T09:30:59.202Z,17.48
2023-04-18T09:33:33.662Z,15.57
2023-04-18T09:36:20.905Z,15.85
2023-04-18T09:38:49.289Z,15.00
2023-04-18T09:41:19.942Z,13.98
2023-04-18T09:43:49.008Z,11.95
2023-04-18T09:46:17.851Z,15.00
2023-04-18T09:48:45.047Z,17.77
2023-04-18T09:51:15.820Z,14.68
2023-04-18T09:53:45.093Z,14.60
2023-04-18T09:56:32.115Z,15.75
2023-04-18T09:59:08.936Z,16.15
2023-04-18T10:01:36.691Z,15.48
2023-04-18T10:04:06.947Z,19.23
2023-04-18T10:06:39.921Z,18.98
2023-04-18T10:09:09.481Z,14.32
2023-04-18T10:11:36.942Z,19.35
2023-04-18T10:14:09.862Z,17.70
2023-04-18T10:16:38.008Z,12.40
2023-04-18T10:19:26.157Z,15.55
2023-04-18T10:21:54.952Z,13.57
2023-04-18T10:24:50.035Z,16.48
2023-04-18T10:27:17.907Z,16.17
2023-04-18T10:29:51.849Z,14.88
2023-04-18T10:32:22.254Z,18.50
2023-04-18T10:34:54.384Z,13.98
2023-04-18T10:37:21.524Z,17.63
2023-04-18T10:39:49.801Z,21.52
2023-04-18T10:42:17.030Z,22.88
2023-04-18T10:44:44.279Z,21.33
2023-04-18T10:47:17.145Z,20.23
2023-04-18T10:49:54.643Z,19.48
2023-04-18T10:52:21.712Z,15.75
2023-04-18T10:54:59.208Z,17.58
2023-04-18T10:57:38.903Z,21.20
2023-04-18T11:00:14.836Z,18.70
2023-04-18T11:03:00.251Z,22.88
2023-04-18T11:05:29.427Z,17.75
2023-04-18T11:07:56.450Z,19.65
2023-04-18T11:10:26.579Z,17.27
2023-04-18T11:12:56.633Z,16.98
2023-04-18T11:15:25.461Z,18.70
2023-04-18T11:18:02.653Z,23.75
2023-04-18T11:20:37.635Z,27.13
2023-04-18T11:23:04.690Z,18.23
2023-04-18T11:25:52.429Z,17.77
2023-04-18T11:28:22.092Z,19.50
2023-04-18T11:30:50.105Z,17.65
2023-04-18T11:33:17.300Z,18.23
2023-04-18T11:35:45.944Z,21.58
2023-04-18T11:38:34.883Z,22.08
2023-04-18T11:41:23.399Z,20.08
2023-04-18T11:43:50.560Z,15.35
2023-04-18T11:46:18.116Z,17.40
2023-04-18T11:48:45.714Z,20.13
2023-04-18T11:51:32.780Z,20.67
2023-04-18T11:54:00.189Z,19.85
2023-04-18T11:56:27.271Z,18.48
2023-04-18T11:58:54.294Z,15.05
2023-04-18T12:01:22.351Z,19.05
2023-04-18T12:04:06.792Z,17.10
2023-04-18T12:06:51.316Z,13.48
2023-04-18T12:09:19.711Z,16.13
2023-04-18T12:12:03.779Z,14.95
2023-04-18T12:14:31.236Z,18.02
2023-04-18T12:17:16.926Z,17.27
2023-04-18T12:19:49.698Z,13.43
2023-04-18T12:22:16.994Z,13.43
2023-04-18T12:24:44.134Z,14.98
2023-04-18T12:27:12.233Z,16.42
2023-04-18T12:29:39.806Z,18.45
2023-04-18T12:32:06.844Z,14.20
2023-04-18T12:34:33.936Z,16.13
2023-04-18T12:37:01.120Z,18.55
2023-04-18T12:39:28.131Z,15.80
2023-04-18T12:41:55.227Z,16.80
2023-04-18T12:44:22.943Z,15.27
2023-04-18T12:47:08.685Z,12.57
2023-04-18T12:49:35.898Z,13.85
2023-04-18T12:52:03.202Z,18.60
2023-04-18T12:54:30.437Z,16.98
2023-04-18T12:57:17.570Z,17.67
2023-04-18T13:00:06.515Z,15.07
2023-04-18T13:02:37.524Z,13.30
2023-04-18T13:05:09.438Z,15.75
2023-04-18T13:07:40.628Z,15.07
2023-04-18T13:10:12.827Z,23.25
2023-04-18T13:12:59.457Z,14.67
2023-04-18T13:15:45.588Z,14.40
2023-04-18T13:18:12.633Z,13.93
2023-04-18T13:21:17.074Z,16.95
2023-04-18T13:23:44.166Z,15.20
2023-04-18T13:26:29.679Z,15.65
2023-04-18T13:28:56.735Z,19.05
2023-04-18T13:31:42.785Z,17.63
2023-04-18T13:34:28.886Z,15.40
2023-04-18T13:37:14.901Z,13.65
2023-04-18T13:39:42.269Z,19.05
2023-04-18T13:42:09.948Z,13.48
2023-04-18T13:44:55.814Z,14.32
2023-04-18T13:47:22.836Z,13.82
2023-04-18T13:50:09.100Z,16.17
2023-04-18T13:52:55.412Z,14.75
2023-04-18T13:55:41.509Z,14.07
2023-04-18T13:58:09.838Z,10.60
2023-04-18T14:00:37.076Z,16.30
2023-04-18T14:03:05.115Z,15.65
2023-04-18T14:05:47.321Z,15.95
2023-04-18T14:08:14.834Z,15.38
2023-04-18T14:11:00.471Z,12.88
2023-04-18T14:13:27.603Z,12.40
2023-04-18T14:15:54.732Z,14.50
2023-04-18T14:18:23.720Z,15.75
2023-04-18T14:20:51.575Z,14.88
2023-04-18T14:23:18.804Z,15.70
2023-04-18T14:25:45.972Z,13.88
2023-04-18T14:28:13.154Z,13.70
2023-04-18T14:31:02.162Z,13.65
2023-04-18T14:33:29.747Z,14.57
2023-04-18T14:35:57.421Z,18.92
2023-04-18T14:38:43.172Z,13.55
2023-04-18T14:41:10.341Z,16.02
2023-04-18T14:43:37.426Z,14.50
2023-04-18T14:46:23.451Z,15.13
2023-04-18T14:48:51.020Z,18.27
2023-04-18T14:51:18.165Z,14.95
2023-04-18T14:53:45.832Z,13.52
2023-04-18T14:56:12.868Z,13.48
2023-04-18T14:58:39.879Z,13.25
2023-04-18T15:01:07.090Z,12.23
2023-04-18T15:03:34.462Z,12.63
2023-04-18T15:06:01.830Z,14.50
2023-04-18T15:08:31.342Z,12.32
2023-04-18T15:10:59.862Z,12.30
2023-04-18T15:13:27.138Z,14.77
2023-04-18T15:15:56.911Z,11.07
2023-04-18T15:18:24.071Z,13.05
2023-04-18T15:20:51.848Z,14.15
2023-04-18T15:23:18.991Z,13.90
2023-04-18T15:25:46.733Z,16.40
2023-04-18T15:28:14.109Z,14.95
2023-04-18T15:30:41.298Z,12.27
2023-04-18T15:33:08.652Z,11.85
2023-04-18T15:35:36.151Z,12.13
2023-04-18T15:38:03.592Z,12.63
2023-04-18T15:40:33.107Z,10.25
2023-04-18T15:43:00.522Z,14.18
2023-04-18T15:45:27.678Z,12.85
2023-04-18T15:47:54.943Z,12.93
2023-04-18T15:50:24.001Z,11.10
2023-04-18T15:52:51.344Z,13.02
2023-04-18T15:55:18.364Z,12.85
2023-04-18T15:57:45.454Z,13.18
2023-04-18T16:00:30.925Z,11.68
2023-04-18T16:02:58.246Z,17.58
2023-04-18T16:05:25.633Z,11.50
2023-04-18T16:07:53.925Z,17.00
2023-04-18T16:10:21.015Z,11.18
2023-04-18T16:12:48.353Z,15.95
2023-04-18T16:15:15.389Z,15.48
2023-04-18T16:17:42.507Z,12.05
2023-04-18T16:20:10.166Z,16.65
2023-04-18T16:22:37.818Z,15.18
2023-04-18T16:25:06.281Z,11.70
2023-04-18T16:27:33.584Z,13.85
2023-04-18T16:30:00.768Z,13.88
2023-04-18T16:32:27.882Z,14.90
2023-04-18T16:34:54.951Z,14.50
2023-04-18T16:37:22.024Z,11.93
2023-04-18T16:39:49.129Z,15.02
2023-04-18T16:42:16.668Z,11.45
2023-04-18T16:44:45.326Z,11.68
2023-04-18T16:47:12.470Z,13.57
2023-04-18T16:49:39.643Z,10.48
2023-04-18T16:52:06.965Z,10.20
2023-04-18T16:54:34.042Z,12.20
2023-04-18T16:57:01.877Z,15.68
2023-04-18T16:59:28.966Z,14.23
2023-04-18T17:01:57.023Z,11.77
2023-04-18T17:04:27.038Z,10.95
2023-04-18T17:06:54.204Z,11.30
2023-04-18T17:09:21.408Z,20.58
2023-04-18T17:11:49.050Z,13.65
2023-04-18T17:14:18.368Z,15.18
2023-04-18T17:16:45.974Z,16.30
2023-04-18T17:19:13.447Z,11.00
2023-04-18T17:21:41.312Z,13.25
2023-04-18T17:24:10.262Z,10.90
2023-04-18T17:26:39.121Z,11.90
2023-04-18T17:29:06.374Z,15.43
2023-04-18T17:31:34.387Z,11.68
2023-04-18T17:34:03.611Z,11.43
2023-04-18T17:36:30.842Z,15.02
2023-04-18T17:39:05.442Z,11.32
2023-04-18T17:41:39.788Z,13.07
2023-04-18T17:44:08.346Z,16.50
2023-04-18T17:46:36.039Z,12.73
2023-04-18T17:49:04.461Z,10.38
2023-04-18T17:51:31.563Z,14.73
2023-04-18T17:53:58.759Z,12.45
2023-04-18T17:56:27.098Z,17.60
2023-04-18T17:58:56.457Z,14.38
2023-04-18T18:01:24.954Z,11.85
2023-04-18T18:03:53.790Z,12.80
2023-04-18T18:06:21.294Z,12.65
2023-04-18T18:08:48.377Z,12.25
2023-04-18T18:11:15.469Z,17.60
2023-04-18T18:13:42.613Z,16.70
2023-04-18T18:16:09.697Z,14.25
2023-04-18T18:18:37.353Z,13.48
2023-04-18T18:21:04.575Z,13.50
2023-04-18T18:23:31.820Z,12.15
2023-04-18T18:25:58.990Z,13.35
2023-04-18T18:28:26.133Z,15.93
2023-04-18T18:30:54.344Z,11.77
2023-04-18T18:33:21.566Z,11.18
2023-04-18T18:35:48.632Z,12.63
2023-04-18T18:38:34.507Z,13.65
2023-04-18T18:41:03.609Z,12.60
2023-04-18T18:43:31.099Z,13.07
2023-04-18T18:45:58.337Z,13.75
2023-04-18T18:48:28.047Z,16.10
2023-04-18T18:50:56.608Z,16.00
2023-04-18T18:53:23.705Z,9.65
2023-04-18T18:55:50.709Z,14.95
2023-04-18T18:58:17.773Z,14.10
2023-04-18T19:00:46.502Z,12.10
2023-04-18T19:03:13.789Z,14.77
2023-04-18T19:05:41.116Z,14.07
2023-04-18T19:08:09.430Z,10.38
2023-04-18T19:10:36.561Z,13.93
2023-04-18T19:13:03.808Z,13.55
2023-04-18T19:15:30.888Z,11.68
2023-04-18T19:17:57.966Z,13.68
2023-04-18T19:20:26.151Z,12.75
2023-04-18T19:22:54.089Z,10.95
2023-04-18T19:25:21.348Z,12.30
2023-04-18T19:27:48.398Z,12.55
2023-04-18T19:30:15.555Z,14.60
2023-04-18T19:32:43.349Z,12.82
2023-04-18T19:35:13.234Z,11.38
2023-04-18T19:37:40.333Z,9.38
2023-04-18T19:40:26.813Z,11.65
2023-04-18T19:42:54.135Z,10.07
2023-04-18T19:45:39.711Z,9.63
2023-04-18T19:48:06.934Z,9.80
2023-04-18T19:50:33.962Z,10.68
2023-04-18T19:53:01.070Z,11.65
2023-04-18T19:55:47.044Z,12.75
2023-04-18T19:58:34.728Z,14.90
2023-04-18T20:01:02.011Z,10.55
2023-04-18T20:03:29.282Z,11.25
2023-04-18T20:05:56.538Z,11.52
2023-04-18T20:08:23.637Z,10.77
2023-04-18T20:10:51.256Z,11.93
2023-04-18T20:13:18.426Z,12.77
2023-04-18T20:16:04.450Z,14.30
2023-04-18T20:18:32.353Z,12.40
2023-04-18T20:21:18.412Z,9.57
2023-04-18T20:23:45.830Z,13.38
2023-04-18T20:26:12.898Z,19.10
2023-04-18T20:29:17.355Z,13.02
2023-04-18T20:32:22.489Z,13.23
2023-04-18T20:35:08.577Z,12.27
2023-04-18T20:37:36.747Z,13.18
2023-04-18T20:40:10.702Z,11.75
2023-04-18T20:42:39.015Z,13.18
2023-04-18T20:45:10.993Z,14.55
2023-04-18T20:47:56.975Z,15.30
2023-04-18T20:50:44.644Z,13.43
2023-04-18T20:53:12.176Z,13.00
2023-04-18T20:55:39.210Z,17.38
2023-04-18T20:58:24.757Z,14.73
2023-04-18T21:00:52.574Z,14.63
2023-04-18T21:03:20.201Z,12.18
2023-04-18T21:05:47.316Z,17.88
2023-04-18T21:08:14.897Z,17.00
2023-04-18T21:10:41.927Z,14.68
2023-04-18T21:13:09.397Z,11.77
2023-04-18T21:15:36.575Z,12.70
2023-04-18T21:18:03.801Z,13.60
2023-04-18T21:20:31.095Z,14.95
2023-04-18T21:22:58.180Z,14.35
2023-04-18T21:25:44.337Z,15.93
2023-04-18T21:28:12.072Z,12.10
2023-04-18T21:30:39.170Z,13.85
2023-04-18T21:33:06.429Z,10.30
2023-04-18T21:35:33.474Z,12.30
2023-04-18T21:38:00.586Z,14.93
2023-04-18T21:40:30.744Z,10.07
2023-04-18T21:42:57.847Z,13.70
2023-04-18T21:45:25.134Z,13.35
2023-04-18T21:47:52.887Z,14.85
2023-04-18T21:50:38.686Z,11.02
2023-04-18T21:53:06.011Z,16.55
2023-04-18T21:55:32.997Z,12.50
2023-04-18T21:58:18.992Z,11.77
2023-04-18T22:00:46.074Z,14.23
2023-04-18T22:03:13.398Z,15.60
2023-04-18T22:05:40.892Z,13.15
2023-04-18T22:08:07.952Z,15.30
2023-04-18T22:10:35.334Z,11.55
2023-04-18T22:13:04.728Z,16.52
2023-04-18T22:15:31.928Z,15.70
2023-04-18T22:17:59.316Z,12.75
2023-04-18T22:20:46.933Z,15.40
2023-04-18T22:23:14.299Z,14.52
2023-04-18T22:25:41.321Z,13.85
2023-04-18T22:28:26.543Z,11.00
2023-04-18T22:30:53.649Z,15.80
2023-04-18T22:33:20.769Z,18.70
2023-04-18T22:36:07.120Z,16.48
2023-04-18T22:38:52.762Z,16.10
2023-04-18T22:41:20.624Z,13.50
2023-04-18T22:43:47.729Z,11.23
2023-04-18T22:46:15.122Z,16.20
2023-04-18T22:48:42.123Z,14.45
2023-04-18T22:51:09.213Z,13.20
2023-04-18T22:53:36.213Z,13.50
2023-04-18T22:56:03.225Z,16.70
2023-04-18T22:58:31.485Z,14.05
2023-04-18T23:00:59.926Z,15.13
2023-04-18T23:03:27.174Z,15.50
2023-04-18T23:05:54.327Z,14.82
2023-04-18T23:08:22.693Z,11.43
2023-04-18T23:10:49.898Z,14.80
2023-04-18T23:13:16.988Z,12.13
2023-04-18T23:15:44.024Z,18.08
2023-04-18T23:18:11.099Z,14.63
2023-04-18T23:20:38.392Z,12.60
2023-04-18T23:23:05.890Z,15.18
2023-04-18T23:25:35.816Z,14.73
2023-04-18T23:28:02.869Z,13.90
2023-04-18T23:30:29.929Z,15.35
2023-04-18T23:32:57.044Z,15.00
2023-04-18T23:35:24.571Z,11.90
2023-04-18T23:37:51.605Z,15.20
2023-04-18T23:40:18.686Z,13.35
2023-04-18T23:42:47.381Z,19.05
2023-04-18T23:45:14.455Z,12.05
2023-04-18T23:47:41.639Z,16.00
2023-04-18T23:50:09.551Z,11.27
2023-04-18T23:52:38.404Z,14.18
2023-04-18T23:55:05.974Z,13.88
2023-04-18T23:57:33.103Z,14.98
